sensor_id;sensor_type;location;lat;lon;timestamp;pressure;altitude;pressure_sealevel;temperature;humidity
27613;BME280;15036;48.094;-1.690;2023-02-01T00:01:46;102486.44;;;13.88;53.64
27613;BME280;15036;48.094;-1.690;2023-02-01T00:04:12;102480.47;;;13.76;53.64
27613;BME280;15036;48.094;-1.690;2023-02-01T00:06:37;102490.75;;;13.82;53.42
27613;BME280;15036;48.094;-1.690;2023-02-01T00:09:03;102477.06;;;13.74;54.13
27613;BME280;15036;48.094;-1.690;2023-02-01T00:11:28;102481.41;;;14.00;53.39
27613;BME280;15036;48.094;-1.690;2023-02-01T00:13:54;102469.56;;;13.99;53.23
27613;BME280;15036;48.094;-1.690;2023-02-01T00:16:28;102461.66;;;14.35;52.07
27613;BME280;15036;48.094;-1.690;2023-02-01T00:19:14;102456.22;;;14.19;52.51
27613;BME280;15036;48.094;-1.690;2023-02-01T00:21:39;102463.69;;;13.71;53.62
27613;BME280;15036;48.094;-1.690;2023-02-01T00:24:05;102460.13;;;14.55;51.46
27613;BME280;15036;48.094;-1.690;2023-02-01T00:26:32;102463.84;;;14.62;51.65
27613;BME280;15036;48.094;-1.690;2023-02-01T00:28:58;102461.28;;;14.07;52.51
27613;BME280;15036;48.094;-1.690;2023-02-01T00:31:23;102466.66;;;14.76;50.99
27613;BME280;15036;48.094;-1.690;2023-02-01T00:33:49;102468.97;;;14.12;52.41
27613;BME280;15036;48.094;-1.690;2023-02-01T00:36:15;102462.38;;;14.21;52.42
27613;BME280;15036;48.094;-1.690;2023-02-01T00:38:40;102463.47;;;13.34;53.96
27613;BME280;15036;48.094;-1.690;2023-02-01T00:41:14;102464.56;;;14.03;52.80
27613;BME280;15036;48.094;-1.690;2023-02-01T00:43:41;102458.00;;;14.12;52.92
27613;BME280;15036;48.094;-1.690;2023-02-01T00:46:06;102458.66;;;13.36;54.32
27613;BME280;15036;48.094;-1.690;2023-02-01T00:48:32;102461.44;;;13.75;54.00
27613;BME280;15036;48.094;-1.690;2023-02-01T00:51:06;102456.63;;;14.08;52.29
27613;BME280;15036;48.094;-1.690;2023-02-01T00:53:33;102465.78;;;14.00;52.82
27613;BME280;15036;48.094;-1.690;2023-02-01T00:55:59;102462.19;;;14.30;52.04
27613;BME280;15036;48.094;-1.690;2023-02-01T00:58:25;102461.97;;;14.40;51.67
27613;BME280;15036;48.094;-1.690;2023-02-01T01:03:37;102454.50;;;13.87;52.50
27613;BME280;15036;48.094;-1.690;2023-02-01T01:06:06;102449.47;;;14.52;51.40
27613;BME280;15036;48.094;-1.690;2023-02-01T01:08:32;102452.53;;;14.04;52.04
27613;BME280;15036;48.094;-1.690;2023-02-01T01:10:58;102449.19;;;13.85;52.73
27613;BME280;15036;48.094;-1.690;2023-02-01T01:13:23;102447.53;;;13.76;52.88
27613;BME280;15036;48.094;-1.690;2023-02-01T01:15:49;102442.22;;;14.06;52.19
27613;BME280;15036;48.094;-1.690;2023-02-01T01:18:14;102450.00;;;14.25;51.99
27613;BME280;15036;48.094;-1.690;2023-02-01T01:20:40;102447.03;;;14.34;51.67
27613;BME280;15036;48.094;-1.690;2023-02-01T01:23:06;102433.00;;;14.52;51.10
27613;BME280;15036;48.094;-1.690;2023-02-01T01:25:32;102446.69;;;14.37;51.32
27613;BME280;15036;48.094;-1.690;2023-02-01T01:28:01;102446.81;;;14.44;51.06
27613;BME280;15036;48.094;-1.690;2023-02-01T01:30:27;102455.53;;;14.17;51.87
27613;BME280;15036;48.094;-1.690;2023-02-01T01:32:52;102447.78;;;14.20;51.12
27613;BME280;15036;48.094;-1.690;2023-02-01T01:35:18;102449.94;;;13.71;52.60
27613;BME280;15036;48.094;-1.690;2023-02-01T01:37:43;102451.09;;;13.85;52.37
27613;BME280;15036;48.094;-1.690;2023-02-01T01:40:09;102454.44;;;13.72;52.57
27613;BME280;15036;48.094;-1.690;2023-02-01T01:42:39;102459.09;;;14.25;51.54
27613;BME280;15036;48.094;-1.690;2023-02-01T01:47:43;102453.44;;;13.96;52.21
27613;BME280;15036;48.094;-1.690;2023-02-01T01:50:15;102444.50;;;14.25;52.06
27613;BME280;15036;48.094;-1.690;2023-02-01T01:52:42;102453.25;;;14.28;51.44
27613;BME280;15036;48.094;-1.690;2023-02-01T01:55:11;102448.06;;;14.03;51.84
27613;BME280;15036;48.094;-1.690;2023-02-01T01:57:39;102446.63;;;14.15;51.41
27613;BME280;15036;48.094;-1.690;2023-02-01T02:00:09;102454.94;;;13.68;52.80
27613;BME280;15036;48.094;-1.690;2023-02-01T02:02:38;102441.50;;;13.42;53.61
27613;BME280;15036;48.094;-1.690;2023-02-01T02:05:06;102450.69;;;13.57;52.76
27613;BME280;15036;48.094;-1.690;2023-02-01T02:07:36;102454.13;;;13.98;51.94
27613;BME280;15036;48.094;-1.690;2023-02-01T02:10:08;102464.31;;;13.81;52.17
27613;BME280;15036;48.094;-1.690;2023-02-01T02:12:38;102462.56;;;13.50;52.85
27613;BME280;15036;48.094;-1.690;2023-02-01T02:15:05;102474.63;;;13.33;53.23
27613;BME280;15036;48.094;-1.690;2023-02-01T02:17:51;102468.84;;;13.66;52.74
27613;BME280;15036;48.094;-1.690;2023-02-01T02:21:14;102477.72;;;13.14;53.85
27613;BME280;15036;48.094;-1.690;2023-02-01T02:26:23;102462.44;;;13.82;52.05
27613;BME280;15036;48.094;-1.690;2023-02-01T02:34:36;102463.38;;;13.66;51.28
27613;BME280;15036;48.094;-1.690;2023-02-01T02:40:21;102471.53;;;13.82;51.41
27613;BME280;15036;48.094;-1.690;2023-02-01T02:46:20;102474.22;;;13.52;51.47
27613;BME280;15036;48.094;-1.690;2023-02-01T02:51:41;102488.44;;;13.47;51.25
27613;BME280;15036;48.094;-1.690;2023-02-01T02:54:31;102478.41;;;13.24;50.98
27613;BME280;15036;48.094;-1.690;2023-02-01T02:57:40;102477.38;;;13.79;50.64
27613;BME280;15036;48.094;-1.690;2023-02-01T03:00:32;102465.44;;;13.64;50.56
27613;BME280;15036;48.094;-1.690;2023-02-01T03:03:16;102477.16;;;13.89;50.29
27613;BME280;15036;48.094;-1.690;2023-02-01T03:06:00;102465.72;;;13.77;50.80
27613;BME280;15036;48.094;-1.690;2023-02-01T03:08:30;102474.41;;;13.89;50.53
27613;BME280;15036;48.094;-1.690;2023-02-01T03:11:10;102463.22;;;13.60;51.02
27613;BME280;15036;48.094;-1.690;2023-02-01T03:16:39;102479.28;;;14.10;50.36
27613;BME280;15036;48.094;-1.690;2023-02-01T03:19:22;102479.03;;;13.88;50.44
27613;BME280;15036;48.094;-1.690;2023-02-01T03:22:12;102478.56;;;14.16;50.31
27613;BME280;15036;48.094;-1.690;2023-02-01T03:25:00;102483.22;;;13.76;50.51
27613;BME280;15036;48.094;-1.690;2023-02-01T03:27:27;102485.97;;;13.76;50.85
27613;BME280;15036;48.094;-1.690;2023-02-01T03:30:13;102478.00;;;13.89;50.46
27613;BME280;15036;48.094;-1.690;2023-02-01T03:32:45;102486.03;;;13.60;50.49
27613;BME280;15036;48.094;-1.690;2023-02-01T03:40:39;102478.78;;;13.67;51.05
27613;BME280;15036;48.094;-1.690;2023-02-01T03:43:10;102463.22;;;13.60;51.38
27613;BME280;15036;48.094;-1.690;2023-02-01T03:45:43;102462.00;;;14.01;50.46
27613;BME280;15036;48.094;-1.690;2023-02-01T03:48:10;102453.53;;;13.80;50.51
27613;BME280;15036;48.094;-1.690;2023-02-01T03:50:40;102452.44;;;13.50;51.86
27613;BME280;15036;48.094;-1.690;2023-02-01T03:53:11;102462.22;;;13.91;50.46
27613;BME280;15036;48.094;-1.690;2023-02-01T03:55:40;102461.84;;;13.94;50.68
27613;BME280;15036;48.094;-1.690;2023-02-01T03:58:13;102470.03;;;14.03;49.90
27613;BME280;15036;48.094;-1.690;2023-02-01T04:00:40;102472.00;;;13.47;51.39
27613;BME280;15036;48.094;-1.690;2023-02-01T04:03:06;102475.38;;;14.04;50.26
27613;BME280;15036;48.094;-1.690;2023-02-01T04:05:33;102467.69;;;14.53;49.12
27613;BME280;15036;48.094;-1.690;2023-02-01T04:07:59;102463.72;;;13.55;50.79
27613;BME280;15036;48.094;-1.690;2023-02-01T04:10:25;102460.44;;;13.13;51.30
27613;BME280;15036;48.094;-1.690;2023-02-01T04:12:50;102459.69;;;13.35;51.14
27613;BME280;15036;48.094;-1.690;2023-02-01T04:15:16;102453.09;;;13.60;50.38
27613;BME280;15036;48.094;-1.690;2023-02-01T04:17:41;102450.22;;;13.84;49.87
27613;BME280;15036;48.094;-1.690;2023-02-01T04:20:07;102462.31;;;13.67;50.39
27613;BME280;15036;48.094;-1.690;2023-02-01T04:22:34;102465.56;;;13.71;50.67
27613;BME280;15036;48.094;-1.690;2023-02-01T04:24:59;102466.19;;;14.20;49.36
27613;BME280;15036;48.094;-1.690;2023-02-01T04:27:24;102464.56;;;14.56;48.63
27613;BME280;15036;48.094;-1.690;2023-02-01T04:29:50;102467.41;;;14.17;49.15
27613;BME280;15036;48.094;-1.690;2023-02-01T04:32:16;102460.94;;;13.09;49.87
27613;BME280;15036;48.094;-1.690;2023-02-01T04:34:42;102466.25;;;13.10;50.59
27613;BME280;15036;48.094;-1.690;2023-02-01T04:37:07;102473.25;;;13.37;50.10
27613;BME280;15036;48.094;-1.690;2023-02-01T04:39:33;102469.63;;;13.83;49.42
27613;BME280;15036;48.094;-1.690;2023-02-01T04:41:58;102460.91;;;13.79;49.58
27613;BME280;15036;48.094;-1.690;2023-02-01T04:44:23;102465.66;;;13.47;50.27
27613;BME280;15036;48.094;-1.690;2023-02-01T04:46:49;102464.75;;;13.62;49.99
27613;BME280;15036;48.094;-1.690;2023-02-01T04:49:15;102476.38;;;12.69;51.50
27613;BME280;15036;48.094;-1.690;2023-02-01T04:51:41;102484.72;;;13.40;50.62
27613;BME280;15036;48.094;-1.690;2023-02-01T04:54:07;102479.94;;;13.26;50.71
27613;BME280;15036;48.094;-1.690;2023-02-01T04:56:33;102487.84;;;13.13;51.03
27613;BME280;15036;48.094;-1.690;2023-02-01T04:59:00;102487.44;;;13.48;50.59
27613;BME280;15036;48.094;-1.690;2023-02-01T05:01:25;102485.28;;;13.03;51.14
27613;BME280;15036;48.094;-1.690;2023-02-01T05:03:51;102482.91;;;13.63;50.10
27613;BME280;15036;48.094;-1.690;2023-02-01T05:06:16;102487.28;;;14.19;49.05
27613;BME280;15036;48.094;-1.690;2023-02-01T05:08:42;102495.19;;;13.83;49.67
27613;BME280;15036;48.094;-1.690;2023-02-01T05:11:07;102496.50;;;14.26;48.75
27613;BME280;15036;48.094;-1.690;2023-02-01T05:13:53;102488.03;;;13.74;49.91
27613;BME280;15036;48.094;-1.690;2023-02-01T05:16:18;102483.25;;;14.07;49.25
27613;BME280;15036;48.094;-1.690;2023-02-01T05:18:44;102487.16;;;13.19;51.19
27613;BME280;15036;48.094;-1.690;2023-02-01T05:21:09;102489.38;;;13.24;51.19
27613;BME280;15036;48.094;-1.690;2023-02-01T05:23:35;102481.38;;;13.61;50.08
27613;BME280;15036;48.094;-1.690;2023-02-01T05:26:20;102494.63;;;13.49;50.15
27613;BME280;15036;48.094;-1.690;2023-02-01T05:28:45;102488.81;;;13.91;49.30
27613;BME280;15036;48.094;-1.690;2023-02-01T05:31:11;102482.72;;;13.65;49.63
27613;BME280;15036;48.094;-1.690;2023-02-01T05:33:37;102489.81;;;13.98;49.37
27613;BME280;15036;48.094;-1.690;2023-02-01T05:36:02;102486.59;;;13.86;49.68
27613;BME280;15036;48.094;-1.690;2023-02-01T05:38:28;102479.13;;;13.72;49.51
27613;BME280;15036;48.094;-1.690;2023-02-01T05:40:55;102491.22;;;13.39;50.20
27613;BME280;15036;48.094;-1.690;2023-02-01T05:43:20;102504.09;;;12.74;51.91
27613;BME280;15036;48.094;-1.690;2023-02-01T05:45:45;102490.19;;;13.87;49.76
27613;BME280;15036;48.094;-1.690;2023-02-01T05:48:11;102498.47;;;13.08;50.70
27613;BME280;15036;48.094;-1.690;2023-02-01T05:50:36;102489.63;;;13.53;50.08
27613;BME280;15036;48.094;-1.690;2023-02-01T05:53:01;102495.50;;;13.50;49.54
27613;BME280;15036;48.094;-1.690;2023-02-01T05:55:27;102504.53;;;13.66;49.71
27613;BME280;15036;48.094;-1.690;2023-02-01T05:57:52;102507.31;;;13.50;50.15
27613;BME280;15036;48.094;-1.690;2023-02-01T06:00:18;102505.91;;;13.70;49.85
27613;BME280;15036;48.094;-1.690;2023-02-01T06:02:43;102502.78;;;13.73;49.76
27613;BME280;15036;48.094;-1.690;2023-02-01T06:05:09;102511.84;;;13.19;51.34
27613;BME280;15036;48.094;-1.690;2023-02-01T06:07:34;102515.22;;;13.37;50.58
27613;BME280;15036;48.094;-1.690;2023-02-01T06:10:00;102524.06;;;13.71;50.33
27613;BME280;15036;48.094;-1.690;2023-02-01T06:12:25;102518.13;;;13.44;50.56
27613;BME280;15036;48.094;-1.690;2023-02-01T06:14:53;102518.66;;;13.31;51.12
27613;BME280;15036;48.094;-1.690;2023-02-01T06:17:18;102516.91;;;13.62;50.09
27613;BME280;15036;48.094;-1.690;2023-02-01T06:19:44;102527.50;;;13.65;49.74
27613;BME280;15036;48.094;-1.690;2023-02-01T06:22:10;102524.41;;;13.76;49.98
27613;BME280;15036;48.094;-1.690;2023-02-01T06:24:35;102515.56;;;13.50;50.43
27613;BME280;15036;48.094;-1.690;2023-02-01T06:27:01;102513.72;;;13.27;50.46
27613;BME280;15036;48.094;-1.690;2023-02-01T06:29:26;102512.91;;;13.65;49.80
27613;BME280;15036;48.094;-1.690;2023-02-01T06:31:52;102520.22;;;13.34;50.56
27613;BME280;15036;48.094;-1.690;2023-02-01T06:34:17;102518.41;;;14.12;48.86
27613;BME280;15036;48.094;-1.690;2023-02-01T06:36:43;102513.66;;;14.36;48.62
27613;BME280;15036;48.094;-1.690;2023-02-01T06:39:08;102502.25;;;13.78;49.40
27613;BME280;15036;48.094;-1.690;2023-02-01T06:41:34;102506.84;;;13.85;49.79
27613;BME280;15036;48.094;-1.690;2023-02-01T06:44:00;102521.53;;;14.01;49.17
27613;BME280;15036;48.094;-1.690;2023-02-01T06:46:25;102526.06;;;13.07;51.16
27613;BME280;15036;48.094;-1.690;2023-02-01T06:48:51;102532.28;;;13.71;49.93
27613;BME280;15036;48.094;-1.690;2023-02-01T06:53:46;102538.44;;;13.81;49.46
27613;BME280;15036;48.094;-1.690;2023-02-01T06:56:11;102543.66;;;14.07;49.14
27613;BME280;15036;48.094;-1.690;2023-02-01T06:58:37;102547.00;;;14.25;48.69
27613;BME280;15036;48.094;-1.690;2023-02-01T07:01:05;102532.22;;;14.34;48.61
27613;BME280;15036;48.094;-1.690;2023-02-01T07:03:31;102524.31;;;13.92;49.31
27613;BME280;15036;48.094;-1.690;2023-02-01T07:05:57;102538.50;;;14.12;48.72
27613;BME280;15036;48.094;-1.690;2023-02-01T07:08:29;102538.16;;;14.07;49.08
27613;BME280;15036;48.094;-1.690;2023-02-01T07:10:55;102536.50;;;13.98;49.25
27613;BME280;15036;48.094;-1.690;2023-02-01T07:13:20;102525.34;;;14.00;49.24
27613;BME280;15036;48.094;-1.690;2023-02-01T07:15:45;102524.44;;;13.68;49.75
27613;BME280;15036;48.094;-1.690;2023-02-01T07:18:15;102526.53;;;13.97;49.18
27613;BME280;15036;48.094;-1.690;2023-02-01T07:20:41;102518.34;;;13.89;49.34
27613;BME280;15036;48.094;-1.690;2023-02-01T07:23:09;102522.63;;;14.22;48.52
27613;BME280;15036;48.094;-1.690;2023-02-01T07:25:35;102532.38;;;14.41;48.25
27613;BME280;15036;48.094;-1.690;2023-02-01T07:28:00;102517.81;;;14.24;48.53
27613;BME280;15036;48.094;-1.690;2023-02-01T07:30:26;102511.50;;;14.24;48.45
27613;BME280;15036;48.094;-1.690;2023-02-01T07:32:51;102514.25;;;13.77;49.47
27613;BME280;15036;48.094;-1.690;2023-02-01T07:35:16;102510.78;;;13.91;49.24
27613;BME280;15036;48.094;-1.690;2023-02-01T07:37:42;102521.59;;;13.84;49.29
27613;BME280;15036;48.094;-1.690;2023-02-01T07:40:08;102515.78;;;13.87;49.14
27613;BME280;15036;48.094;-1.690;2023-02-01T07:42:34;102527.72;;;14.03;48.80
27613;BME280;15036;48.094;-1.690;2023-02-01T07:44:59;102518.00;;;14.31;48.36
27613;BME280;15036;48.094;-1.690;2023-02-01T07:47:24;102518.69;;;14.25;48.25
27613;BME280;15036;48.094;-1.690;2023-02-01T07:49:50;102516.84;;;14.17;48.76
27613;BME280;15036;48.094;-1.690;2023-02-01T07:52:15;102514.72;;;14.58;48.22
27613;BME280;15036;48.094;-1.690;2023-02-01T07:54:41;102524.44;;;14.46;48.51
27613;BME280;15036;48.094;-1.690;2023-02-01T07:57:06;102518.19;;;14.52;47.98
27613;BME280;15036;48.094;-1.690;2023-02-01T07:59:33;102519.72;;;14.54;47.98
27613;BME280;15036;48.094;-1.690;2023-02-01T08:01:59;102513.22;;;14.55;48.10
27613;BME280;15036;48.094;-1.690;2023-02-01T08:04:24;102516.13;;;14.54;47.97
27613;BME280;15036;48.094;-1.690;2023-02-01T08:06:50;102523.47;;;14.61;47.75
27613;BME280;15036;48.094;-1.690;2023-02-01T08:09:15;102514.84;;;14.42;48.06
27613;BME280;15036;48.094;-1.690;2023-02-01T08:11:40;102515.97;;;14.17;48.26
27613;BME280;15036;48.094;-1.690;2023-02-01T08:14:06;102521.13;;;14.20;48.28
27613;BME280;15036;48.094;-1.690;2023-02-01T08:16:32;102517.59;;;14.42;48.03
27613;BME280;15036;48.094;-1.690;2023-02-01T08:19:00;102511.50;;;13.85;49.22
27613;BME280;15036;48.094;-1.690;2023-02-01T08:21:27;102524.13;;;14.41;48.27
27613;BME280;15036;48.094;-1.690;2023-02-01T08:24:02;102523.94;;;14.04;48.37
27613;BME280;15036;48.094;-1.690;2023-02-01T08:26:28;102529.44;;;14.04;48.74
27613;BME280;15036;48.094;-1.690;2023-02-01T08:28:58;102538.75;;;13.86;48.52
27613;BME280;15036;48.094;-1.690;2023-02-01T08:31:26;102540.44;;;14.04;48.70
27613;BME280;15036;48.094;-1.690;2023-02-01T08:33:54;102553.91;;;14.21;48.02
27613;BME280;15036;48.094;-1.690;2023-02-01T08:36:22;102552.97;;;13.98;48.35
27613;BME280;15036;48.094;-1.690;2023-02-01T08:38:48;102557.13;;;14.25;47.89
27613;BME280;15036;48.094;-1.690;2023-02-01T08:41:16;102550.00;;;14.46;47.46
27613;BME280;15036;48.094;-1.690;2023-02-01T08:43:42;102559.16;;;14.39;47.59
27613;BME280;15036;48.094;-1.690;2023-02-01T08:46:09;102568.47;;;14.38;47.41
27613;BME280;15036;48.094;-1.690;2023-02-01T08:48:35;102566.06;;;14.65;47.15
27613;BME280;15036;48.094;-1.690;2023-02-01T08:51:02;102571.72;;;14.64;46.96
27613;BME280;15036;48.094;-1.690;2023-02-01T08:53:28;102557.47;;;14.91;46.52
27613;BME280;15036;48.094;-1.690;2023-02-01T08:55:53;102571.56;;;14.88;46.62
27613;BME280;15036;48.094;-1.690;2023-02-01T08:58:19;102567.13;;;14.87;46.63
27613;BME280;15036;48.094;-1.690;2023-02-01T09:00:45;102567.16;;;14.79;46.49
27613;BME280;15036;48.094;-1.690;2023-02-01T09:03:11;102569.84;;;14.64;47.03
27613;BME280;15036;48.094;-1.690;2023-02-01T09:05:37;102574.47;;;14.64;47.04
27613;BME280;15036;48.094;-1.690;2023-02-01T09:08:03;102585.47;;;14.64;47.06
27613;BME280;15036;48.094;-1.690;2023-02-01T09:10:29;102589.91;;;14.73;46.92
27613;BME280;15036;48.094;-1.690;2023-02-01T09:12:54;102599.88;;;14.66;47.00
27613;BME280;15036;48.094;-1.690;2023-02-01T09:15:20;102601.25;;;14.39;47.32
27613;BME280;15036;48.094;-1.690;2023-02-01T09:17:45;102600.19;;;14.40;47.79
27613;BME280;15036;48.094;-1.690;2023-02-01T09:20:11;102602.13;;;14.40;47.63
27613;BME280;15036;48.094;-1.690;2023-02-01T09:22:36;102607.06;;;14.44;47.57
27613;BME280;15036;48.094;-1.690;2023-02-01T09:25:02;102623.91;;;14.72;47.31
27613;BME280;15036;48.094;-1.690;2023-02-01T09:27:27;102620.22;;;14.57;47.38
27613;BME280;15036;48.094;-1.690;2023-02-01T09:29:53;102618.41;;;14.41;47.61
27613;BME280;15036;48.094;-1.690;2023-02-01T09:32:20;102617.81;;;14.54;47.79
27613;BME280;15036;48.094;-1.690;2023-02-01T09:34:45;102617.09;;;14.91;47.18
27613;BME280;15036;48.094;-1.690;2023-02-01T09:37:10;102607.66;;;14.32;47.76
27613;BME280;15036;48.094;-1.690;2023-02-01T09:39:36;102616.75;;;14.63;47.73
27613;BME280;15036;48.094;-1.690;2023-02-01T09:42:21;102614.91;;;14.55;47.84
27613;BME280;15036;48.094;-1.690;2023-02-01T09:45:04;102613.28;;;14.69;47.69
27613;BME280;15036;48.094;-1.690;2023-02-01T09:47:32;102620.31;;;14.71;47.33
27613;BME280;15036;48.094;-1.690;2023-02-01T09:50:14;102616.91;;;14.92;47.08
27613;BME280;15036;48.094;-1.690;2023-02-01T09:52:43;102616.88;;;15.00;47.34
27613;BME280;15036;48.094;-1.690;2023-02-01T09:55:15;102609.50;;;14.39;48.40
27613;BME280;15036;48.094;-1.690;2023-02-01T10:00:23;102621.34;;;14.70;47.81
27613;BME280;15036;48.094;-1.690;2023-02-01T10:02:50;102620.66;;;14.68;48.04
27613;BME280;15036;48.094;-1.690;2023-02-01T10:05:28;102625.81;;;14.71;47.75
27613;BME280;15036;48.094;-1.690;2023-02-01T10:11:00;102623.56;;;14.75;47.87
27613;BME280;15036;48.094;-1.690;2023-02-01T10:16:16;102623.38;;;14.76;48.08
27613;BME280;15036;48.094;-1.690;2023-02-01T10:18:52;102617.69;;;14.78;47.93
27613;BME280;15036;48.094;-1.690;2023-02-01T10:26:25;102617.59;;;15.17;47.61
27613;BME280;15036;48.094;-1.690;2023-02-01T10:29:01;102615.47;;;15.04;47.06
27613;BME280;15036;48.094;-1.690;2023-02-01T10:31:33;102621.56;;;15.37;46.78
27613;BME280;15036;48.094;-1.690;2023-02-01T10:34:25;102611.72;;;15.20;47.06
27613;BME280;15036;48.094;-1.690;2023-02-01T10:37:00;102618.94;;;14.98;47.40
27613;BME280;15036;48.094;-1.690;2023-02-01T10:39:25;102614.44;;;15.05;46.94
27613;BME280;15036;48.094;-1.690;2023-02-01T10:41:51;102613.81;;;15.40;46.64
27613;BME280;15036;48.094;-1.690;2023-02-01T10:44:21;102606.34;;;15.04;47.26
27613;BME280;15036;48.094;-1.690;2023-02-01T10:46:49;102611.69;;;15.50;46.36
27613;BME280;15036;48.094;-1.690;2023-02-01T10:49:24;102617.16;;;15.28;46.21
27613;BME280;15036;48.094;-1.690;2023-02-01T10:52:09;102624.81;;;15.40;45.89
27613;BME280;15036;48.094;-1.690;2023-02-01T10:54:39;102635.88;;;15.32;46.16
27613;BME280;15036;48.094;-1.690;2023-02-01T10:57:24;102640.16;;;15.43;45.83
27613;BME280;15036;48.094;-1.690;2023-02-01T10:59:51;102653.44;;;15.09;47.02
27613;BME280;15036;48.094;-1.690;2023-02-01T11:02:26;102652.00;;;14.90;46.87
27613;BME280;15036;48.094;-1.690;2023-02-01T11:05:00;102654.41;;;15.38;46.62
27613;BME280;15036;48.094;-1.690;2023-02-01T11:07:26;102650.22;;;15.50;46.15
27613;BME280;15036;48.094;-1.690;2023-02-01T11:09:53;102666.03;;;15.03;46.53
27613;BME280;15036;48.094;-1.690;2023-02-01T11:12:37;102664.47;;;15.54;46.17
27613;BME280;15036;48.094;-1.690;2023-02-01T11:15:19;102659.28;;;15.74;45.68
27613;BME280;15036;48.094;-1.690;2023-02-01T11:17:46;102652.63;;;15.00;46.76
27613;BME280;15036;48.094;-1.690;2023-02-01T11:20:55;102652.63;;;15.00;47.11
27613;BME280;15036;48.094;-1.690;2023-02-01T11:23:02;102649.09;;;15.59;46.06
27613;BME280;15036;48.094;-1.690;2023-02-01T11:25:28;102661.56;;;15.70;45.52
27613;BME280;15036;48.094;-1.690;2023-02-01T11:27:55;102652.66;;;15.83;45.53
27613;BME280;15036;48.094;-1.690;2023-02-01T11:30:34;102642.91;;;16.09;44.93
27613;BME280;15036;48.094;-1.690;2023-02-01T11:33:01;102643.91;;;15.65;45.73
27613;BME280;15036;48.094;-1.690;2023-02-01T11:35:28;102642.41;;;15.77;45.65
27613;BME280;15036;48.094;-1.690;2023-02-01T11:37:57;102637.44;;;14.51;47.06
27613;BME280;15036;48.094;-1.690;2023-02-01T11:40:37;102625.03;;;15.91;44.98
27613;BME280;15036;48.094;-1.690;2023-02-01T11:46:01;102611.94;;;16.22;43.60
27613;BME280;15036;48.094;-1.690;2023-02-01T11:48:29;102612.13;;;16.06;43.66
27613;BME280;15036;48.094;-1.690;2023-02-01T11:59:37;102603.06;;;15.68;44.33
27613;BME280;15036;48.094;-1.690;2023-02-01T12:07:42;102591.47;;;15.58;44.27
27613;BME280;15036;48.094;-1.690;2023-02-01T12:10:23;102578.97;;;15.99;43.89
27613;BME280;15036;48.094;-1.690;2023-02-01T12:27:26;102568.16;;;16.48;43.81
27613;BME280;15036;48.094;-1.690;2023-02-01T12:32:37;102579.59;;;16.60;42.14
27613;BME280;15036;48.094;-1.690;2023-02-01T12:43:18;102575.88;;;15.50;42.93
27613;BME280;15036;48.094;-1.690;2023-02-01T12:45:56;102579.00;;;15.47;43.24
27613;BME280;15036;48.094;-1.690;2023-02-01T12:51:02;102566.88;;;16.15;43.01
27613;BME280;15036;48.094;-1.690;2023-02-01T12:56:10;102568.13;;;15.83;43.24
27613;BME280;15036;48.094;-1.690;2023-02-01T12:58:48;102560.44;;;15.79;43.44
27613;BME280;15036;48.094;-1.690;2023-02-01T13:01:26;102565.66;;;15.74;43.94
27613;BME280;15036;48.094;-1.690;2023-02-01T13:06:26;102559.94;;;16.19;43.29
27613;BME280;15036;48.094;-1.690;2023-02-01T13:11:33;102547.28;;;16.24;43.50
27613;BME280;15036;48.094;-1.690;2023-02-01T13:16:47;102534.84;;;16.28;43.91
27613;BME280;15036;48.094;-1.690;2023-02-01T13:22:12;102536.78;;;15.99;44.18
27613;BME280;15036;48.094;-1.690;2023-02-01T13:24:48;102548.66;;;16.64;42.90
27613;BME280;15036;48.094;-1.690;2023-02-01T13:27:16;102539.63;;;16.05;43.92
27613;BME280;15036;48.094;-1.690;2023-02-01T13:29:51;102535.41;;;16.53;43.24
27613;BME280;15036;48.094;-1.690;2023-02-01T13:40:36;102541.72;;;15.89;44.42
27613;BME280;15036;48.094;-1.690;2023-02-01T13:43:09;102552.25;;;15.33;45.47
27613;BME280;15036;48.094;-1.690;2023-02-01T13:45:43;102542.72;;;14.84;46.44
27613;BME280;15036;48.094;-1.690;2023-02-01T13:48:28;102551.38;;;15.18;46.16
27613;BME280;15036;48.094;-1.690;2023-02-01T13:50:56;102538.44;;;15.04;46.67
27613;BME280;15036;48.094;-1.690;2023-02-01T13:53:28;102543.13;;;14.96;46.69
27613;BME280;15036;48.094;-1.690;2023-02-01T13:56:02;102537.66;;;15.70;45.74
27613;BME280;15036;48.094;-1.690;2023-02-01T14:03:44;102541.38;;;15.40;46.74
27613;BME280;15036;48.094;-1.690;2023-02-01T14:06:38;102549.22;;;14.91;47.44
27613;BME280;15036;48.094;-1.690;2023-02-01T14:11:52;102549.47;;;14.51;48.18
27613;BME280;15036;48.094;-1.690;2023-02-01T14:19:34;102550.03;;;15.37;47.03
27613;BME280;15036;48.094;-1.690;2023-02-01T14:24:53;102541.34;;;14.27;48.70
27613;BME280;15036;48.094;-1.690;2023-02-01T14:27:28;102543.34;;;14.71;48.01
27613;BME280;15036;48.094;-1.690;2023-02-01T14:29:59;102544.28;;;14.25;48.85
27613;BME280;15036;48.094;-1.690;2023-02-01T14:32:39;102545.66;;;15.05;47.80
27613;BME280;15036;48.094;-1.690;2023-02-01T14:35:17;102543.69;;;14.68;48.43
27613;BME280;15036;48.094;-1.690;2023-02-01T14:37:45;102546.91;;;15.17;47.04
27613;BME280;15036;48.094;-1.690;2023-02-01T14:42:48;102537.59;;;15.41;46.71
27613;BME280;15036;48.094;-1.690;2023-02-01T14:55:40;102531.47;;;16.12;45.54
27613;BME280;15036;48.094;-1.690;2023-02-01T14:58:31;102529.00;;;16.02;45.75
27613;BME280;15036;48.094;-1.690;2023-02-01T15:00:58;102534.88;;;15.55;47.15
27613;BME280;15036;48.094;-1.690;2023-02-01T15:06:38;102527.75;;;16.19;46.13
27613;BME280;15036;48.094;-1.690;2023-02-01T15:09:26;102529.53;;;16.12;45.87
27613;BME280;15036;48.094;-1.690;2023-02-01T15:14:35;102523.75;;;15.49;47.09
27613;BME280;15036;48.094;-1.690;2023-02-01T15:17:02;102542.06;;;15.19;47.82
27613;BME280;15036;48.094;-1.690;2023-02-01T16:37:27;102560.72;;;14.64;52.98
27613;BME280;15036;48.094;-1.690;2023-02-01T16:39:54;102556.88;;;15.18;50.87